Time;durP1;ratioP1;P1;durP2;ratioP2;P2;SDS_P1;SDS_P2;PMS_P1;PMS_P2;Temp;Humidity;BMP_temperature;BMP_pressure;BME280_temperature;BME280_humidity;BME280_pressure;Samples;Min_cycle;Max_cycle;Signal;HPM_P1;HPM_P2
2023/06/12 00:02:20;;;;;;;7.10;5.32;;;;;;;22.01;48.71;101498.31;5066103;28;20060;-75
2023/06/12 00:04:45;;;;;;;11.00;6.22;;;;;;;21.93;49.07;101503.66;5054019;28;20059;-75
2023/06/12 00:07:12;;;;;;;9.25;5.57;;;;;;;21.90;48.82;101498.56;5063372;28;20484;-75
2023/06/12 00:09:41;;;;;;;12.00;5.85;;;;;;;21.71;49.57;101494.13;5071796;28;20193;-75
2023/06/12 00:12:08;;;;;;;11.38;5.63;;;;;;;21.61;49.93;101490.63;5059716;28;20052;-74
2023/06/12 00:14:36;;;;;;;9.30;6.28;;;;;;;21.50;51.10;101490.84;5034466;28;21165;-75
2023/06/12 00:17:01;;;;;;;8.98;6.18;;;;;;;21.53;51.12;101491.38;5055154;28;20048;-75
2023/06/12 00:19:27;;;;;;;10.52;5.85;;;;;;;21.50;51.30;101496.28;5049939;28;20041;-75
2023/06/12 00:21:53;;;;;;;9.85;5.68;;;;;;;21.44;51.87;101498.59;5063227;28;21029;-75
2023/06/12 00:24:19;;;;;;;9.45;5.97;;;;;;;21.37;51.40;101493.91;5043053;28;20064;-74
2023/06/12 00:26:44;;;;;;;8.15;6.22;;;;;;;21.36;51.58;101495.78;5071031;28;20040;-74
2023/06/12 00:29:10;;;;;;;6.75;5.70;;;;;;;21.27;51.52;101490.38;5040415;28;20040;-74
2023/06/12 00:31:36;;;;;;;8.25;5.57;;;;;;;21.22;52.08;101501.66;5053942;28;20032;-74
2023/06/12 00:34:01;;;;;;;12.02;6.63;;;;;;;21.24;52.10;101499.69;5065523;28;20047;-74
2023/06/12 00:36:27;;;;;;;8.60;6.47;;;;;;;21.14;52.78;101507.84;5068827;28;20102;-75
2023/06/12 00:38:52;;;;;;;9.35;5.75;;;;;;;21.06;53.22;101499.59;5067322;28;20085;-75
2023/06/12 00:41:18;;;;;;;7.95;6.30;;;;;;;21.00;53.41;101502.91;5071074;28;20033;-75
2023/06/12 00:43:44;;;;;;;8.18;6.82;;;;;;;21.03;52.80;101496.31;5069782;28;21121;-74
2023/06/12 00:46:11;;;;;;;10.02;6.75;;;;;;;20.84;53.86;101508.13;5055308;28;20064;-75
2023/06/12 00:48:40;;;;;;;8.68;5.90;;;;;;;20.75;54.45;101500.88;5024108;28;20029;-74
2023/06/12 00:51:10;;;;;;;8.25;6.18;;;;;;;20.69;54.60;101492.31;5048259;28;20502;-73
2023/06/12 00:53:36;;;;;;;10.45;6.53;;;;;;;20.64;55.41;101505.47;5052615;28;20043;-73
2023/06/12 00:56:02;;;;;;;6.97;6.25;;;;;;;20.67;54.49;101499.72;5045344;28;20672;-75
2023/06/12 00:58:27;;;;;;;9.30;6.78;;;;;;;20.57;55.17;101503.47;5057745;28;20037;-73
2023/06/12 01:00:54;;;;;;;8.98;6.90;;;;;;;20.41;56.90;101496.75;5053206;28;20166;-75
2023/06/12 01:03:22;;;;;;;10.00;7.22;;;;;;;20.42;55.76;101498.47;5043904;28;20032;-75
2023/06/12 01:05:47;;;;;;;9.50;6.88;;;;;;;20.46;56.05;101487.34;5054684;28;20033;-75
2023/06/12 01:08:34;;;;;;;11.60;7.43;;;;;;;20.46;55.87;101484.63;5038333;28;20035;-75
2023/06/12 01:11:11;;;;;;;7.72;6.57;;;;;;;20.42;56.26;101487.63;5070433;28;20032;-76
2023/06/12 01:13:40;;;;;;;9.50;6.40;;;;;;;20.46;56.11;101482.78;5053988;28;20378;-75
2023/06/12 01:16:07;;;;;;;12.07;7.50;;;;;;;20.35;56.52;101491.09;5058225;28;20045;-75
2023/06/12 01:18:33;;;;;;;8.48;6.55;;;;;;;20.13;58.13;101481.38;5053887;28;20037;-75
2023/06/12 01:21:07;;;;;;;14.68;7.47;;;;;;;19.97;58.52;101494.66;5064834;28;20275;-75
2023/06/12 01:24:16;;;;;;;10.20;6.95;;;;;;;20.03;58.24;101494.97;5054969;28;20119;-74
2023/06/12 01:27:07;;;;;;;9.77;7.35;;;;;;;19.86;59.18;101496.50;5011350;28;20107;-75
2023/06/12 01:29:58;;;;;;;10.48;7.07;;;;;;;19.80;59.54;101494.38;5016545;28;20041;-76
2023/06/12 01:32:24;;;;;;;9.55;7.50;;;;;;;19.88;59.18;101496.34;5022625;28;20117;-75
2023/06/12 01:34:59;;;;;;;9.00;6.88;;;;;;;19.87;59.27;101495.50;5017506;28;20436;-75
2023/06/12 01:37:44;;;;;;;;;;;;;;;19.78;59.72;101490.06;5006124;28;20109;-76
2023/06/12 01:40:17;;;;;;;9.85;7.60;;;;;;;19.70;60.31;101492.66;5019708;28;19921;-74
2023/06/12 01:42:43;;;;;;;11.07;6.80;;;;;;;19.63;60.75;101497.78;5015122;28;20034;-75
2023/06/12 01:45:10;;;;;;;11.02;8.18;;;;;;;19.64;61.30;101496.78;5018644;28;20034;-76
2023/06/12 01:47:43;;;;;;;7.95;6.97;;;;;;;19.58;61.14;101494.59;5013578;28;20054;-75
2023/06/12 01:50:12;;;;;;;10.17;7.93;;;;;;;19.57;61.58;101490.16;5028523;28;20057;-76
2023/06/12 01:52:41;;;;;;;10.70;7.60;;;;;;;19.52;62.11;101484.31;5033680;28;20030;-76
2023/06/12 01:55:07;;;;;;;11.68;8.00;;;;;;;19.52;61.96;101484.31;5034211;28;20053;-75
2023/06/12 01:57:38;;;;;;;11.20;8.98;;;;;;;19.41;63.52;101490.72;5004293;28;20034;-75
2023/06/12 02:00:09;;;;;;;15.73;8.82;;;;;;;19.33;64.84;101496.81;5007031;28;20052;-75
2023/06/12 02:02:46;;;;;;;10.57;8.13;;;;;;;19.21;65.66;101497.91;5066949;28;20045;-74
2023/06/12 02:05:13;;;;;;;16.27;8.77;;;;;;;19.13;66.47;101497.75;5048586;28;20021;-75
2023/06/12 02:07:42;;;;;;;12.07;8.52;;;;;;;19.15;66.31;101493.06;5072072;28;20032;-75
2023/06/12 02:10:08;;;;;;;11.98;8.73;;;;;;;19.17;65.51;101493.75;5060220;28;20083;-75
2023/06/12 02:12:35;;;;;;;11.05;8.02;;;;;;;19.22;64.95;101504.16;5033944;28;20246;-77
2023/06/12 02:15:01;;;;;;;14.10;8.75;;;;;;;19.18;65.07;101503.59;5057666;28;20060;-74
2023/06/12 02:17:28;;;;;;;13.65;8.23;;;;;;;19.14;64.99;101494.91;5061149;28;20083;-74
2023/06/12 02:19:56;;;;;;;13.95;9.35;;;;;;;19.07;65.48;101498.28;5048505;28;20036;-74
2023/06/12 02:22:21;;;;;;;16.02;9.27;;;;;;;19.00;66.37;101491.72;5061721;28;20042;-73
2023/06/12 02:24:47;;;;;;;13.68;8.40;;;;;;;18.79;67.40;101503.44;5065526;28;20545;-74
2023/06/12 02:27:13;;;;;;;15.68;8.30;;;;;;;18.82;67.29;101507.69;5026472;28;20025;-74
2023/06/12 02:29:41;;;;;;;11.27;9.27;;;;;;;18.77;67.08;101508.09;5037524;28;20040;-73
2023/06/12 02:32:07;;;;;;;12.93;9.02;;;;;;;18.73;67.12;101508.53;5059042;28;20090;-73
2023/06/12 02:34:33;;;;;;;11.35;8.80;;;;;;;18.73;66.78;101505.81;5060236;28;20072;-76
2023/06/12 02:36:59;;;;;;;13.85;9.70;;;;;;;18.76;66.18;101506.38;5068026;28;20618;-76
2023/06/12 02:39:26;;;;;;;17.35;9.80;;;;;;;18.78;65.99;101514.38;5060819;28;20041;-76
2023/06/12 02:41:53;;;;;;;15.40;9.65;;;;;;;18.76;65.84;101514.50;5059306;28;20078;-76
2023/06/12 02:44:18;;;;;;;12.57;9.20;;;;;;;18.69;65.83;101504.38;5040111;28;20029;-75
2023/06/12 02:46:54;;;;;;;10.45;8.68;;;;;;;18.56;67.99;101518.03;5063479;28;20040;-75
2023/06/12 02:49:28;;;;;;;13.55;7.82;;;;;;;18.45;68.85;101512.72;5061722;28;20083;-76
2023/06/12 02:51:54;;;;;;;13.02;8.48;;;;;;;18.48;68.59;101515.16;5062528;28;20189;-75
2023/06/12 02:54:23;;;;;;;14.85;10.05;;;;;;;18.36;69.15;101517.03;5063484;28;20044;-76
2023/06/12 02:56:49;;;;;;;11.50;9.63;;;;;;;18.18;69.83;101510.53;5038249;28;20062;-75
2023/06/12 02:59:17;;;;;;;12.02;9.82;;;;;;;18.23;69.71;101514.56;5052090;28;20913;-75
2023/06/12 03:01:43;;;;;;;15.88;10.25;;;;;;;18.28;69.72;101512.31;5060982;28;20238;-75
2023/06/12 03:04:20;;;;;;;11.27;8.70;;;;;;;18.30;69.45;101513.03;5039260;28;20862;-75
2023/06/12 03:06:47;;;;;;;11.90;8.77;;;;;;;18.30;69.84;101517.56;5062055;28;20147;-75
2023/06/12 03:09:17;;;;;;;13.07;9.88;;;;;;;18.34;69.41;101506.38;5060966;28;20041;-76
2023/06/12 03:11:43;;;;;;;13.93;8.52;;;;;;;18.36;68.62;101509.81;5051536;28;20064;-76
2023/06/12 03:14:14;;;;;;;13.82;8.57;;;;;;;18.40;66.59;101512.25;5065312;28;20047;-76
2023/06/12 03:16:40;;;;;;;14.15;9.73;;;;;;;18.43;65.68;101507.44;5057620;28;20056;-76
2023/06/12 03:19:07;;;;;;;13.68;10.20;;;;;;;18.31;65.26;101506.63;5032004;28;20033;-73
2023/06/12 03:21:32;;;;;;;19.70;9.93;;;;;;;18.47;64.28;101511.56;5047004;28;20036;-76
2023/06/12 03:23:59;;;;;;;12.77;9.95;;;;;;;18.44;65.28;101511.00;5061277;28;20514;-76
2023/06/12 03:26:26;;;;;;;19.98;9.57;;;;;;;18.55;64.97;101514.47;5061995;28;20044;-77
2023/06/12 03:28:51;;;;;;;16.23;9.93;;;;;;;18.75;64.38;101504.69;5058660;28;20048;-76
2023/06/12 03:31:17;;;;;;;13.73;10.15;;;;;;;18.97;63.47;101502.78;5062564;28;20940;-76
2023/06/12 03:33:43;;;;;;;11.10;8.93;;;;;;;19.15;62.79;101510.13;5036388;28;20029;-76
2023/06/12 03:36:13;;;;;;;15.73;10.13;;;;;;;19.45;61.87;101505.66;5050119;28;20043;-77
2023/06/12 03:38:40;;;;;;;11.32;9.45;;;;;;;19.65;62.38;101493.91;5060775;28;20049;-74
2023/06/12 03:41:11;;;;;;;13.57;8.88;;;;;;;20.08;61.58;101500.81;5047594;28;20028;-76
2023/06/12 03:43:37;;;;;;;13.45;9.70;;;;;;;20.40;59.14;101496.91;5020141;28;20068;-76
2023/06/12 03:46:04;;;;;;;13.93;9.32;;;;;;;20.82;58.66;101501.97;5051135;28;20035;-76
2023/06/12 03:48:30;;;;;;;13.25;9.88;;;;;;;21.21;58.55;101495.38;5054334;28;20068;-75
2023/06/12 03:50:55;;;;;;;11.50;9.93;;;;;;;21.57;57.00;101487.34;5042902;28;20036;-76
2023/06/12 03:53:21;;;;;;;11.63;9.98;;;;;;;22.04;55.79;101494.44;5060608;28;20549;-74
2023/06/12 03:55:47;;;;;;;14.85;9.73;;;;;;;22.38;55.40;101491.88;5049459;28;20037;-77
2023/06/12 03:58:16;;;;;;;12.13;8.95;;;;;;;22.71;55.00;101501.13;5068519;28;20045;-75
2023/06/12 04:00:47;;;;;;;13.43;9.27;;;;;;;23.16;53.41;101500.88;5069023;28;20028;-74
2023/06/12 04:03:18;;;;;;;12.40;9.50;;;;;;;23.36;53.32;101493.31;5051220;28;20031;-74
2023/06/12 04:05:45;;;;;;;13.32;9.55;;;;;;;23.54;51.41;101493.16;5041013;28;20033;-74
2023/06/12 04:08:10;;;;;;;11.13;8.82;;;;;;;23.85;51.52;101498.06;5070269;28;20029;-75
2023/06/12 04:10:36;;;;;;;9.60;8.60;;;;;;;24.29;51.00;101504.88;5067465;28;20037;-75
2023/06/12 04:13:02;;;;;;;10.63;9.20;;;;;;;24.64;50.19;101499.25;5063264;28;20043;-74
2023/06/12 04:15:29;;;;;;;13.07;9.50;;;;;;;24.94;48.87;101503.09;5052856;28;20287;-75
2023/06/12 04:17:55;;;;;;;11.40;9.52;;;;;;;25.27;47.75;101490.25;5050742;28;20032;-74
2023/06/12 04:20:21;;;;;;;14.95;9.55;;;;;;;25.61;46.97;101497.25;5061531;28;20033;-74
2023/06/12 04:22:47;;;;;;;12.82;9.15;;;;;;;25.85;46.68;101493.50;5047276;28;20086;-75
2023/06/12 04:25:14;;;;;;;12.23;8.88;;;;;;;26.20;45.60;101492.03;5069921;28;20024;-75
2023/06/12 04:27:42;;;;;;;12.07;9.88;;;;;;;26.69;45.23;101487.00;5040228;28;20102;-75
2023/06/12 04:30:11;;;;;;;11.88;9.48;;;;;;;26.93;44.65;101494.09;5046291;28;20140;-74
2023/06/12 04:32:37;;;;;;;12.00;9.60;;;;;;;27.31;43.33;101488.50;5058420;28;20126;-76
2023/06/12 04:35:05;;;;;;;14.35;8.38;;;;;;;27.63;43.09;101488.06;5043903;28;20088;-74
2023/06/12 04:37:32;;;;;;;11.00;8.65;;;;;;;27.86;42.18;101478.84;5050593;28;20203;-75
2023/06/12 04:39:57;;;;;;;12.35;8.73;;;;;;;28.15;41.92;101483.34;5052876;28;20033;-75
2023/06/12 04:42:24;;;;;;;12.73;9.20;;;;;;;28.57;41.61;101479.72;5039790;28;20857;-74
2023/06/12 04:44:49;;;;;;;9.73;8.70;;;;;;;28.17;41.13;101477.69;5040234;28;20140;-75
2023/06/12 04:47:16;;;;;;;11.57;7.97;;;;;;;28.93;40.51;101477.84;5051843;28;20037;-76
2023/06/12 04:49:45;;;;;;;10.02;8.40;;;;;;;29.20;42.13;101484.34;5052648;28;20144;-75
2023/06/12 04:52:12;;;;;;;11.35;9.27;;;;;;;29.60;40.97;101477.13;5066928;28;20033;-75
2023/06/12 04:54:44;;;;;;;10.52;9.07;;;;;;;29.80;39.47;101480.75;5057920;28;20032;-75
2023/06/12 04:57:13;;;;;;;13.77;8.80;;;;;;;29.86;39.16;101482.66;5063092;28;20119;-75
2023/06/12 04:59:45;;;;;;;13.23;8.32;;;;;;;29.94;38.77;101476.13;5014853;28;20048;-74
2023/06/12 05:02:12;;;;;;;9.87;8.87;;;;;;;29.73;40.14;101484.56;5056839;28;20138;-75
2023/06/12 05:04:40;;;;;;;11.10;8.13;;;;;;;30.03;38.30;101482.28;5057495;28;20032;-74
2023/06/12 05:07:16;;;;;;;10.05;8.80;;;;;;;29.38;39.13;101490.97;5014664;28;20041;-72
2023/06/12 05:09:46;;;;;;;11.70;8.77;;;;;;;28.94;38.18;101494.13;5055302;28;20067;-76
2023/06/12 05:12:12;;;;;;;13.27;8.50;;;;;;;28.81;39.90;101492.09;5062745;28;20302;-76
2023/06/12 05:14:45;;;;;;;11.95;9.00;;;;;;;27.71;40.25;101497.22;5051036;28;20028;-76
2023/06/12 05:17:11;;;;;;;14.50;9.00;;;;;;;28.07;40.79;101488.97;5045499;28;20045;-76
2023/06/12 05:19:41;;;;;;;10.65;9.55;;;;;;;28.87;40.54;101480.34;5056237;28;20032;-75
2023/06/12 05:22:07;;;;;;;14.57;9.40;;;;;;;28.94;39.59;101490.50;5047585;28;20044;-75
2023/06/12 05:24:35;;;;;;;16.05;9.25;;;;;;;27.98;41.47;101490.16;5067067;28;20218;-77
2023/06/12 05:27:01;;;;;;;9.80;8.80;;;;;;;29.34;39.74;101486.94;5044128;28;20098;-76
2023/06/12 05:29:27;;;;;;;14.20;8.77;;;;;;;29.34;39.71;101497.94;5058583;28;20135;-76
2023/06/12 05:31:54;;;;;;;13.00;9.23;;;;;;;30.11;39.02;101477.41;5063871;28;20028;-77
2023/06/12 05:34:19;;;;;;;12.73;9.20;;;;;;;29.95;39.32;101483.31;5034074;28;20110;-76
2023/06/12 05:36:45;;;;;;;12.55;8.88;;;;;;;29.69;39.00;101483.28;5048595;28;20044;-76
2023/06/12 05:39:11;;;;;;;13.20;8.90;;;;;;;30.28;37.44;101488.88;5064583;28;20045;-76
2023/06/12 05:41:37;;;;;;;14.13;8.73;;;;;;;31.00;36.87;101489.88;5063138;28;20129;-76
2023/06/12 05:44:04;;;;;;;12.70;8.52;;;;;;;31.05;35.87;101490.06;5049247;28;20068;-77
2023/06/12 05:46:29;;;;;;;10.13;9.07;;;;;;;30.17;37.06;101486.75;5026889;28;20153;-77
2023/06/12 05:48:57;;;;;;;10.60;8.05;;;;;;;29.49;38.55;101492.28;5058319;28;20052;-77
2023/06/12 05:51:26;;;;;;;11.18;8.07;;;;;;;29.32;38.67;101493.66;5066873;28;20662;-76
2023/06/12 05:53:52;;;;;;;14.27;8.88;;;;;;;28.46;39.66;101495.88;5036738;28;20151;-77
2023/06/12 05:56:18;;;;;;;11.27;8.15;;;;;;;28.72;40.32;101500.72;5045899;28;20044;-76
2023/06/12 05:58:44;;;;;;;11.43;8.40;;;;;;;29.09;39.73;101507.75;5064769;28;20804;-77
2023/06/12 06:01:16;;;;;;;10.13;8.95;;;;;;;29.49;38.17;101494.19;5036798;28;20134;-78
2023/06/12 06:03:52;;;;;;;12.65;8.73;;;;;;;28.39;40.84;101504.91;5064160;28;20679;-77
2023/06/12 06:06:18;;;;;;;13.02;8.85;;;;;;;28.58;41.82;101510.75;5048768;28;20048;-76
2023/06/12 06:08:44;;;;;;;13.23;8.77;;;;;;;28.06;41.41;101509.19;5054116;28;20102;-75
2023/06/12 06:11:13;;;;;;;12.98;8.68;;;;;;;28.57;40.22;101500.84;5073294;28;20138;-76
2023/06/12 06:13:43;;;;;;;15.13;8.55;;;;;;;28.79;40.76;101512.59;5055336;28;20542;-75
2023/06/12 06:16:11;;;;;;;14.30;8.43;;;;;;;29.01;39.67;101510.63;5055516;28;20103;-76
2023/06/12 06:18:41;;;;;;;12.30;8.02;;;;;;;28.81;39.91;101510.47;5039722;28;20109;-78
2023/06/12 06:21:07;;;;;;;10.63;8.07;;;;;;;29.03;41.01;101511.31;5078249;28;20050;-76
2023/06/12 06:23:33;;;;;;;12.63;8.02;;;;;;;28.93;42.92;101513.53;5056584;28;20116;-78
2023/06/12 06:26:00;;;;;;;15.65;8.45;;;;;;;28.20;42.12;101511.03;5055290;28;20822;-77
2023/06/12 06:28:26;;;;;;;11.77;8.02;;;;;;;27.89;41.41;101516.84;5061727;28;20028;-76
2023/06/12 06:30:52;;;;;;;16.30;8.43;;;;;;;27.34;43.28;101521.00;5057413;28;20067;-77
2023/06/12 06:33:17;;;;;;;13.43;8.07;;;;;;;27.39;43.08;101520.44;5054352;28;20451;-75
2023/06/12 06:35:43;;;;;;;11.43;8.65;;;;;;;27.86;44.67;101517.22;5079519;28;20096;-77
2023/06/12 06:38:11;;;;;;;10.55;8.10;;;;;;;28.27;42.26;101514.69;5066312;28;20060;-75
2023/06/12 06:40:37;;;;;;;11.60;7.93;;;;;;;28.54;42.47;101515.78;5084262;28;20082;-75
2023/06/12 06:43:03;;;;;;;14.02;8.38;;;;;;;28.39;43.74;101521.38;5065110;28;20029;-76
2023/06/12 06:45:42;;;;;;;11.77;7.70;;;;;;;28.77;41.46;101526.53;5082089;28;20079;-76
2023/06/12 06:48:12;;;;;;;9.60;7.80;;;;;;;28.90;43.06;101521.09;5045767;28;20025;-75
2023/06/12 06:50:41;;;;;;;12.73;7.82;;;;;;;28.52;41.05;101522.53;5074188;28;20541;-77
2023/06/12 06:53:07;;;;;;;17.42;7.85;;;;;;;28.01;41.50;101523.50;5062237;28;20068;-76
2023/06/12 06:55:35;;;;;;;13.48;8.35;;;;;;;28.06;41.36;101515.56;5056950;28;20048;-77
2023/06/12 06:58:04;;;;;;;9.32;7.80;;;;;;;27.65;41.66;101512.53;5052291;28;20033;-75
2023/06/12 07:00:31;;;;;;;9.80;7.55;;;;;;;27.14;42.93;101507.03;5039073;28;20090;-76
2023/06/12 07:02:57;;;;;;;11.68;7.43;;;;;;;27.52;40.47;101513.25;5037188;28;20125;-76
2023/06/12 07:05:23;;;;;;;12.90;8.05;;;;;;;27.94;42.28;101510.78;5055594;28;20037;-76
2023/06/12 07:07:49;;;;;;;14.50;9.10;;;;;;;27.45;41.94;101515.03;5070223;28;20108;-76
2023/06/12 07:10:15;;;;;;;12.90;8.35;;;;;;;27.43;42.68;101517.13;5052746;28;20055;-74
2023/06/12 07:12:42;;;;;;;10.80;8.48;;;;;;;27.72;42.17;101518.13;5048891;28;20111;-74
2023/06/12 07:15:09;;;;;;;10.90;8.00;;;;;;;27.63;42.00;101518.22;5050912;28;20025;-75
2023/06/12 07:17:43;;;;;;;9.35;7.85;;;;;;;27.55;44.46;101512.84;5038039;28;20040;-76
2023/06/12 07:20:11;;;;;;;10.75;7.68;;;;;;;27.38;42.96;101508.63;5052880;28;20036;-74
2023/06/12 07:22:36;;;;;;;12.68;8.45;;;;;;;27.04;43.51;101510.03;5057030;28;20025;-76
2023/06/12 07:25:02;;;;;;;14.48;7.85;;;;;;;27.22;45.01;101506.09;5034718;28;20348;-74
2023/06/12 07:27:27;;;;;;;14.15;7.65;;;;;;;27.27;43.94;101500.91;5053536;28;20048;-76
2023/06/12 07:29:55;;;;;;;14.25;8.13;;;;;;;27.39;44.12;101504.84;5032794;28;20035;-77
2023/06/12 07:32:21;;;;;;;13.77;8.40;;;;;;;27.02;43.89;101498.44;5053027;28;20029;-76
2023/06/12 07:34:47;;;;;;;11.68;9.10;;;;;;;27.60;42.36;101498.56;5052475;28;20092;-77
2023/06/12 07:37:13;;;;;;;10.52;7.20;;;;;;;27.32;42.52;101499.28;5054149;28;20056;-76
2023/06/12 07:39:41;;;;;;;13.52;7.22;;;;;;;27.53;43.88;101498.50;5070935;28;20501;-78
2023/06/12 07:42:11;;;;;;;11.63;7.50;;;;;;;28.17;44.25;101488.66;5051099;28;20067;-75
2023/06/12 07:44:37;;;;;;;10.73;7.30;;;;;;;27.73;42.35;101495.16;5049880;28;20076;-79
2023/06/12 07:47:07;;;;;;;14.93;8.13;;;;;;;27.44;41.84;101485.09;5023508;28;20115;-73
2023/06/12 07:49:33;;;;;;;11.05;8.10;;;;;;;27.74;43.91;101491.38;5047346;28;20106;-76
2023/06/12 07:51:59;;;;;;;11.77;7.72;;;;;;;27.82;43.21;101483.03;5045390;28;20523;-78
2023/06/12 07:54:24;;;;;;;17.30;8.25;;;;;;;27.64;43.05;101494.38;5051521;28;20071;-76
2023/06/12 07:56:53;;;;;;;10.57;7.22;;;;;;;28.25;43.04;101494.81;5033439;28;20156;-77
2023/06/12 07:59:20;;;;;;;12.38;8.15;;;;;;;28.14;42.42;101487.97;5030599;28;20865;-77
2023/06/12 08:01:50;;;;;;;12.90;7.68;;;;;;;27.97;42.06;101483.81;5038079;28;20066;-78
2023/06/12 08:04:18;;;;;;;12.90;8.60;;;;;;;28.18;41.84;101488.44;5051664;28;20850;-78
2023/06/12 08:06:47;;;;;;;11.30;7.63;;;;;;;28.26;42.28;101491.03;5052232;28;20036;-76
2023/06/12 08:09:14;;;;;;;8.57;7.68;;;;;;;28.04;44.88;101484.72;5059331;28;20025;-76
2023/06/12 08:11:41;;;;;;;11.27;8.02;;;;;;;28.33;43.24;101489.25;5050548;28;20119;-75
2023/06/12 08:14:08;;;;;;;12.63;8.52;;;;;;;28.48;43.43;101478.16;5048409;28;20044;-76
2023/06/12 08:16:36;;;;;;;9.88;7.38;;;;;;;28.98;41.63;101486.34;5047986;28;20036;-76
2023/06/12 08:19:03;;;;;;;9.85;7.95;;;;;;;28.64;41.19;101488.00;5044411;28;20123;-75
2023/06/12 08:21:32;;;;;;;10.60;8.23;;;;;;;28.21;40.92;101484.44;5043638;28;20033;-75
2023/06/12 08:23:58;;;;;;;12.75;7.57;;;;;;;28.48;41.09;101482.81;5049966;28;20115;-78
2023/06/12 08:26:24;;;;;;;9.82;7.35;;;;;;;28.52;39.33;101478.63;5046179;28;20040;-76
2023/06/12 08:28:51;;;;;;;13.55;7.90;;;;;;;28.93;40.92;101475.09;5071467;28;20036;-76
2023/06/12 08:31:19;;;;;;;10.13;6.57;;;;;;;28.81;41.42;101474.78;5045793;28;20037;-74
2023/06/12 08:33:45;;;;;;;13.90;8.25;;;;;;;29.04;39.99;101475.38;5066504;28;20049;-75
2023/06/12 08:36:12;;;;;;;13.55;7.97;;;;;;;29.08;42.36;101475.84;5049782;28;20033;-75
2023/06/12 08:38:39;;;;;;;13.75;7.60;;;;;;;29.04;40.08;101474.53;5052248;28;20045;-74
2023/06/12 08:41:07;;;;;;;10.98;8.15;;;;;;;28.94;40.08;101477.66;5050776;28;20881;-74
2023/06/12 08:43:33;;;;;;;9.57;8.57;;;;;;;28.63;39.33;101476.16;5046985;28;20044;-75
2023/06/12 08:46:03;;;;;;;14.75;7.97;;;;;;;28.11;39.81;101477.41;5023783;28;20086;-74
2023/06/12 08:48:29;;;;;;;10.68;7.20;;;;;;;28.88;39.11;101473.78;5043820;28;20082;-76
2023/06/12 08:50:54;;;;;;;9.27;7.70;;;;;;;28.77;39.41;101477.13;5044035;28;20039;-74
2023/06/12 08:53:20;;;;;;;10.88;8.30;;;;;;;28.34;40.39;101474.47;5053887;28;20048;-74
2023/06/12 08:55:46;;;;;;;15.75;7.70;;;;;;;28.50;41.01;101467.81;5065998;28;20094;-74
2023/06/12 08:58:12;;;;;;;9.88;7.10;;;;;;;28.53;39.10;101469.34;5055429;28;20094;-73
2023/06/12 09:00:41;;;;;;;12.85;7.60;;;;;;;28.42;39.97;101470.75;5067390;28;20090;-76
2023/06/12 09:03:07;;;;;;;9.40;7.40;;;;;;;28.74;40.36;101468.41;5031049;28;20032;-74
2023/06/12 09:05:41;;;;;;;8.52;7.03;;;;;;;28.52;39.86;101478.63;5059341;28;20102;-75
2023/06/12 09:08:07;;;;;;;9.93;7.25;;;;;;;28.75;39.46;101465.47;5042584;28;20588;-73
2023/06/12 09:10:38;;;;;;;13.63;7.15;;;;;;;28.98;39.88;101472.63;5048580;28;20041;-75
2023/06/12 09:13:11;;;;;;;11.07;7.05;;;;;;;28.68;37.76;101472.81;5040339;28;20040;-75
2023/06/12 09:15:49;;;;;;;10.27;7.50;;;;;;;28.48;39.14;101482.81;5049213;28;20098;-76
2023/06/12 09:18:15;;;;;;;10.55;7.30;;;;;;;28.93;37.27;101472.34;5065230;28;20032;-75
2023/06/12 09:20:41;;;;;;;11.15;7.60;;;;;;;28.96;37.43;101469.19;5063945;28;20049;-74
2023/06/12 09:23:06;;;;;;;10.32;7.30;;;;;;;28.95;37.53;101462.88;5060989;28;20047;-73
2023/06/12 09:25:37;;;;;;;12.93;8.07;;;;;;;29.18;38.18;101458.97;5048971;28;20042;-75
2023/06/12 09:28:04;;;;;;;10.10;7.40;;;;;;;29.29;38.22;101459.22;5063432;28;20082;-75
2023/06/12 09:30:43;;;;;;;12.45;7.30;;;;;;;29.17;38.58;101455.38;5063232;28;20127;-75
2023/06/12 09:33:11;;;;;;;18.88;7.90;;;;;;;29.34;37.63;101448.47;5054216;28;20037;-75
2023/06/12 09:35:51;;;;;;;9.95;7.43;;;;;;;28.79;37.79;101453.03;5051339;28;20132;-74
2023/06/12 09:38:16;;;;;;;9.07;6.78;;;;;;;28.70;36.22;101467.13;5062430;28;20049;-76
2023/06/12 09:40:42;;;;;;;10.95;7.22;;;;;;;28.93;38.15;101453.97;5050427;28;20033;-74
2023/06/12 09:43:07;;;;;;;8.88;7.93;;;;;;;28.99;35.86;101447.69;5068086;28;20790;-74
2023/06/12 09:45:36;;;;;;;10.45;7.28;;;;;;;29.37;35.61;101445.31;5066901;28;20021;-75
2023/06/12 09:48:02;;;;;;;10.57;7.43;;;;;;;29.53;36.60;101449.59;5046557;28;20033;-75
2023/06/12 09:50:29;;;;;;;14.85;7.30;;;;;;;29.54;34.53;101447.72;5048154;28;20346;-75
2023/06/12 09:52:58;;;;;;;11.60;6.50;;;;;;;29.27;34.38;101441.22;5069357;28;20481;-75
2023/06/12 09:55:26;;;;;;;14.65;7.18;;;;;;;29.55;35.05;101441.16;5070230;28;20823;-76
2023/06/12 09:57:52;;;;;;;12.13;6.97;;;;;;;29.45;33.95;101436.03;5066396;28;20215;-76
2023/06/12 10:00:20;;;;;;;10.70;6.85;;;;;;;29.61;34.67;101429.31;5066312;28;20071;-75
2023/06/12 10:03:00;;;;;;;13.20;7.53;;;;;;;29.25;37.26;101440.59;5064533;28;20029;-74
2023/06/12 10:05:42;;;;;;;12.82;7.18;;;;;;;29.05;35.46;101438.63;5053654;28;20587;-76
2023/06/12 10:08:11;;;;;;;13.52;7.40;;;;;;;29.49;37.11;101426.31;5071618;28;20060;-74
2023/06/12 10:10:41;;;;;;;9.95;7.05;;;;;;;29.17;33.99;101444.41;5066787;28;20193;-75
2023/06/12 10:13:08;;;;;;;10.77;7.05;;;;;;;29.30;34.93;101433.44;5052769;28;20031;-76
2023/06/12 10:15:34;;;;;;;8.55;6.28;;;;;;;29.53;34.89;101429.50;5062736;28;20032;-77
2023/06/12 10:18:01;;;;;;;10.30;6.95;;;;;;;30.01;34.52;101432.97;5049884;28;20643;-75
2023/06/12 10:20:29;;;;;;;9.63;7.03;;;;;;;29.93;35.90;101425.78;5057211;28;20071;-75
2023/06/12 10:22:55;;;;;;;11.93;6.50;;;;;;;30.07;36.47;101428.50;5067219;28;20087;-76
2023/06/12 10:25:21;;;;;;;10.00;7.10;;;;;;;30.07;35.49;101417.50;5064372;28;20045;-76
2023/06/12 10:27:47;;;;;;;13.35;7.72;;;;;;;29.75;35.69;101428.28;5063150;28;20029;-75
2023/06/12 10:30:16;;;;;;;13.32;7.28;;;;;;;29.66;34.88;101418.53;5058546;28;20095;-75
2023/06/12 10:32:44;;;;;;;11.50;6.63;;;;;;;29.49;36.37;101422.72;5061981;28;20642;-76
2023/06/12 10:35:12;;;;;;;7.47;6.70;;;;;;;29.19;35.88;101412.06;5066702;28;20143;-75
2023/06/12 10:37:44;;;;;;;9.52;6.28;;;;;;;29.84;35.82;101420.69;5066095;28;20052;-75
2023/06/12 10:40:19;;;;;;;11.00;7.60;;;;;;;29.72;36.42;101416.84;5062506;28;20182;-75
2023/06/12 10:42:48;;;;;;;10.02;7.75;;;;;;;29.41;37.04;101413.59;5070053;28;20037;-76
2023/06/12 10:45:28;;;;;;;8.75;6.50;;;;;;;29.91;37.46;101414.13;5027709;28;20037;-74
2023/06/12 10:48:02;;;;;;;11.82;7.47;;;;;;;29.93;37.07;101411.19;5068787;28;20093;-74
2023/06/12 10:50:50;;;;;;;30.65;8.50;;;;;;;30.07;37.72;101404.63;5065437;28;20072;-75
2023/06/12 10:53:21;;;;;;;35.92;8.85;;;;;;;29.72;39.59;101406.72;5049092;28;20079;-75
2023/06/12 10:55:46;;;;;;;11.13;6.53;;;;;;;29.75;39.12;101400.78;5069146;28;20040;-78
2023/06/12 10:58:19;;;;;;;12.35;7.50;;;;;;;30.00;37.98;101397.41;5049349;28;20102;-73
2023/06/12 11:00:51;;;;;;;10.90;6.55;;;;;;;29.77;39.06;101393.19;5067955;28;20073;-76
2023/06/12 11:03:21;;;;;;;11.52;6.97;;;;;;;29.80;36.87;101392.75;5049380;28;20037;-75
2023/06/12 11:05:54;;;;;;;8.97;6.67;;;;;;;30.11;36.81;101388.53;5062650;28;20037;-74
2023/06/12 11:08:20;;;;;;;9.25;6.55;;;;;;;30.36;36.68;101399.75;5069097;28;20894;-74
2023/06/12 11:10:45;;;;;;;8.32;6.95;;;;;;;30.32;36.96;101404.81;5069778;28;20106;-74
2023/06/12 11:13:11;;;;;;;9.85;6.47;;;;;;;30.63;35.96;101389.53;5065471;28;20094;-73
2023/06/12 11:15:42;;;;;;;10.13;6.95;;;;;;;30.32;35.20;101387.47;5066662;28;20345;-75
2023/06/12 11:18:11;;;;;;;8.35;6.85;;;;;;;30.23;36.32;101394.28;5061498;28;20048;-75
2023/06/12 11:20:37;;;;;;;8.07;6.78;;;;;;;30.32;35.24;101392.97;5066912;28;20040;-74
2023/06/12 11:23:03;;;;;;;9.65;6.90;;;;;;;30.57;35.40;101388.47;5045749;28;20032;-75
2023/06/12 11:25:45;;;;;;;9.75;7.63;;;;;;;30.58;35.39;101392.94;5068929;28;20606;-75